Time;durP1;ratioP1;P1;durP2;ratioP2;P2;SDS_P1;SDS_P2;PMS_P1;PMS_P2;Temp;Humidity;BMP_temperature;BMP_pressure;BME280_temperature;BME280_humidity;BME280_pressure;Samples;Min_cycle;Max_cycle;Signal;HPM_P1;HPM_P2
2022/06/26 00:02:00;;;;;;;;;1.00;1.00;;;;;17.09;67.83;100750.91;5089955;28;45685;-84
2022/06/26 00:04:26;;;;;;;;;0.75;0.75;;;;;17.05;67.93;100738.53;5090109;28;45411;-84
2022/06/26 00:06:51;;;;;;;;;1.25;1.25;;;;;17.19;68.03;100766.97;5090563;28;45139;-83
2022/06/26 00:09:16;;;;;;;;;2.00;2.00;;;;;17.14;67.98;100773.09;5089112;28;45476;-90
2022/06/26 00:11:42;;;;;;;;;0.75;0.75;;;;;17.18;67.88;100783.75;5089460;28;45817;-91
2022/06/26 00:14:07;;;;;;;;;2.00;2.00;;;;;16.85;67.92;100733.06;5089210;28;45183;-89
2022/06/26 00:16:32;;;;;;;;;2.75;2.50;;;;;16.92;68.06;100738.41;5089210;28;45320;-87
2022/06/26 00:18:58;;;;;;;;;2.00;2.00;;;;;16.92;67.98;100746.38;5089678;28;45143;-82
2022/06/26 00:21:23;;;;;;;;;2.00;1.75;;;;;16.83;68.36;100735.66;5088701;28;46495;-91
2022/06/26 00:23:49;;;;;;;;;2.00;1.00;;;;;16.79;68.49;100733.84;5090762;28;44946;-93
2022/06/26 00:26:14;;;;;;;;;2.00;1.50;;;;;16.87;68.13;100745.44;5091039;28;44958;-89
2022/06/26 00:28:39;;;;;;;;;1.00;1.00;;;;;16.74;68.20;100720.53;5090281;28;45243;-82
2022/06/26 00:31:05;;;;;;;;;1.00;1.00;;;;;16.65;68.41;100711.56;5091653;28;47125;-90
2022/06/26 00:33:30;;;;;;;;;2.75;2.75;;;;;16.74;68.33;100723.19;5075666;28;45147;-93
2022/06/26 00:35:56;;;;;;;;;2.50;2.25;;;;;16.78;68.49;100737.38;5094451;28;45027;-89
2022/06/26 00:38:21;;;;;;;;;1.75;1.75;;;;;16.76;68.36;100731.19;5094518;28;45289;-88
2022/06/26 00:40:46;;;;;;;;;2.00;1.00;;;;;16.89;68.92;100756.94;5092615;28;45494;-92
2022/06/26 00:43:12;;;;;;;;;1.75;1.00;;;;;17.05;68.97;100791.63;5093357;28;45198;-88
2022/06/26 00:45:37;;;;;;;;;2.50;1.75;;;;;16.81;68.94;100750.69;5092848;28;45091;-82
2022/06/26 00:48:03;;;;;;;;;2.50;2.50;;;;;16.74;69.11;100740.88;5074616;28;45135;-91
2022/06/26 00:50:28;;;;;;;;;1.00;1.00;;;;;16.59;68.68;100730.97;5074763;28;46025;-90
2022/06/26 00:52:56;;;;;;;;;2.75;2.00;;;;;16.79;68.29;100768.38;5091627;28;45413;-91
2022/06/26 00:55:22;;;;;;;;;1.25;1.00;;;;;16.76;68.73;100760.38;5092832;28;44942;-90
2022/06/26 00:57:49;;;;;;;;;1.00;1.00;;;;;17.01;68.50;100802.22;5092961;27;45308;-83
2022/06/26 01:00:15;;;;;;;;;2.75;2.00;;;;;16.91;68.51;100795.03;5092281;28;45375;-83
2022/06/26 01:02:41;;;;;;;;;1.75;1.75;;;;;16.56;68.36;100719.47;5074013;28;45276;-82
2022/06/26 01:05:08;;;;;;;;;2.00;2.00;;;;;16.66;68.29;100742.56;5092843;28;44999;-90
2022/06/26 01:07:33;;;;;;;;;2.00;1.75;;;;;16.70;67.80;100753.22;5092862;28;45345;-85
2022/06/26 01:09:58;;;;;;;;;2.75;2.50;;;;;16.71;68.04;100760.34;5086638;28;45685;-82
2022/06/26 01:12:24;;;;;;;;;2.00;1.25;;;;;16.72;68.47;100764.78;5091162;28;45251;-82
2022/06/26 01:14:51;;;;;;;;;2.25;2.00;;;;;16.91;68.04;100813.63;5092852;28;45075;-82
2022/06/26 01:17:17;;;;;;;;;4.00;3.00;;;;;16.70;68.35;100781.53;5091622;28;45440;-82
2022/06/26 01:19:43;;;;;;;;;2.00;2.00;;;;;16.83;68.16;100801.16;5074148;28;47191;-85
2022/06/26 01:22:08;;;;;;;;;2.00;2.00;;;;;16.51;68.52;100756.56;5092202;28;45942;-91
2022/06/26 01:24:34;;;;;;;;;0.75;0.75;;;;;16.39;68.15;100724.59;5092791;28;45044;-92
2022/06/26 01:27:00;;;;;;;;;2.00;2.00;;;;;16.54;67.98;100758.34;5092587;28;45193;-83
2022/06/26 01:29:26;;;;;;;;;2.25;2.25;;;;;16.59;68.12;100769.91;5092270;28;45992;-91
2022/06/26 01:31:51;;;;;;;;;2.00;2.00;;;;;16.74;68.09;100793.97;5073410;28;45500;-82
2022/06/26 01:34:16;;;;;;;;;3.75;3.75;;;;;16.66;68.49;100791.22;5092392;28;45070;-90
2022/06/26 01:36:42;;;;;;;;;2.00;1.00;;;;;16.48;68.09;100762.72;5091757;28;45359;-85
2022/06/26 01:39:07;;;;;;;;;2.00;2.00;;;;;16.51;68.39;100772.50;5092045;28;45554;-81
2022/06/26 01:41:33;;;;;;;;;2.00;2.00;;;;;16.66;67.95;100798.28;5072733;28;48178;-90
2022/06/26 01:43:58;;;;;;;;;2.00;2.00;;;;;16.70;68.06;100818.69;5091725;28;45128;-83
2022/06/26 01:46:25;;;;;;;;;2.00;2.00;;;;;16.80;67.96;100830.31;5091779;28;45180;-84
2022/06/26 01:48:51;;;;;;;;;3.25;3.00;;;;;16.50;68.48;100776.91;5092205;28;45947;-81
2022/06/26 01:51:17;;;;;;;;;2.00;2.00;;;;;16.42;68.15;100761.78;5091399;28;45009;-81
2022/06/26 01:53:43;;;;;;;;;5.50;3.00;;;;;16.67;67.86;100797.41;5073640;28;45107;-81
2022/06/26 01:56:08;;;;;;;;;3.00;3.00;;;;;16.52;67.76;100777.81;5091777;28;44867;-81
2022/06/26 01:58:34;;;;;;;;;3.00;3.00;;;;;16.71;67.90;100816.06;5091136;27;46333;-81
2022/06/26 02:01:01;;;;;;;;;4.00;4.00;;;;;16.37;68.18;100776.75;5091282;28;45536;-82
2022/06/26 02:03:27;;;;;;;;;3.00;3.00;;;;;16.24;67.93;100754.47;5092341;28;45252;-82
2022/06/26 02:05:53;;;;;;;;;2.75;2.00;;;;;16.29;67.79;100750.13;5091766;28;45068;-87
2022/06/26 02:08:18;;;;;;;;;2.50;2.00;;;;;16.33;67.93;100761.66;5089417;28;45986;-92
2022/06/26 02:13:42;;;;;;;;;2.75;2.50;;;;;16.61;68.38;100818.59;5092314;28;45010;-87
2022/06/26 02:16:21;;;;;;;;;3.00;3.00;;;;;16.45;68.45;100799.84;5090861;28;45093;-90
2022/06/26 02:18:51;;;;;;;;;2.75;2.75;;;;;16.65;68.68;100823.94;5091323;28;46017;-82
2022/06/26 02:21:19;;;;;;;;;2.75;2.00;;;;;16.41;68.11;100774.16;5091596;28;45115;-89
2022/06/26 02:23:48;;;;;;;;;3.00;2.00;;;;;16.50;68.73;100794.56;5092541;28;45144;-92
2022/06/26 02:26:14;;;;;;;;;2.25;2.00;;;;;16.31;68.23;100759.00;5091497;28;45292;-91
2022/06/26 02:28:40;;;;;;;;;3.00;3.00;;;;;16.70;67.95;100816.03;5092174;28;45126;-90
2022/06/26 02:31:06;;;;;;;;;1.50;1.50;;;;;16.60;67.95;100787.59;5092971;28;45106;-90
2022/06/26 02:33:32;;;;;;;;;2.00;2.00;;;;;16.46;68.28;100750.31;5092117;28;45229;-81
2022/06/26 02:35:59;;;;;;;;;3.00;3.00;;;;;16.44;68.29;100752.94;5089734;28;45363;-91
2022/06/26 02:38:24;;;;;;;;;3.00;2.25;;;;;16.83;68.18;100810.00;5072191;28;45381;-83
2022/06/26 02:40:50;;;;;;;;;2.25;2.00;;;;;16.67;68.10;100789.44;5091308;28;45216;-80
2022/06/26 02:43:16;;;;;;;;;2.75;2.75;;;;;16.38;68.19;100726.34;5091361;28;45041;-91
2022/06/26 02:45:42;;;;;;;;;4.75;3.50;;;;;16.40;68.49;100735.22;5091486;28;45195;-87
2022/06/26 02:48:08;;;;;;;;;3.00;2.25;;;;;16.60;68.03;100759.31;5090386;28;45901;-82
2022/06/26 02:50:33;;;;;;;;;3.75;3.75;;;;;16.68;68.36;100776.19;5090887;28;45851;-82
2022/06/26 02:52:58;;;;;;;;;1.75;1.75;;;;;16.90;68.47;100811.84;5089515;28;45032;-92
2022/06/26 02:55:24;;;;;;;;;3.75;3.75;;;;;16.83;67.69;100796.72;5089725;28;45704;-89
2022/06/26 02:57:49;;;;;;;;;3.25;2.75;;;;;16.80;68.14;100814.38;5094874;27;47326;-86
2022/06/26 03:00:15;;;;;;;;;2.00;2.00;;;;;16.87;68.37;100830.38;5106980;27;45051;-84
2022/06/26 03:02:41;;;;;;;;;2.00;2.00;;;;;16.45;68.10;100764.44;5090965;28;45058;-89
2022/06/26 03:05:07;;;;;;;;;4.00;3.75;;;;;16.88;67.92;100837.47;5094861;27;45101;-82
2022/06/26 03:07:32;;;;;;;;;3.75;3.25;;;;;16.62;68.50;100784.09;5111214;27;45397;-81
2022/06/26 03:09:57;;;;;;;;;2.50;2.00;;;;;16.69;68.28;100799.19;5093113;27;45170;-86
2022/06/26 03:12:23;;;;;;;;;4.00;4.00;;;;;16.36;68.25;100738.72;5090103;27;45271;-85
2022/06/26 03:14:48;;;;;;;;;3.75;3.00;;;;;16.53;68.42;100770.72;5093804;27;45140;-84
2022/06/26 03:17:15;;;;;;;;;3.00;3.00;;;;;16.64;67.79;100792.06;5109770;27;45898;-82
2022/06/26 03:19:40;;;;;;;;;3.00;3.00;;;;;16.66;67.97;100806.25;5111822;27;45753;-88
2022/06/26 03:22:06;;;;;;;;;2.25;2.25;;;;;16.65;68.39;100816.00;5111521;27;45129;-92
2022/06/26 03:24:31;;;;;;;;;2.00;2.00;;;;;16.39;67.92;100775.88;5111149;27;45070;-82
2022/06/26 03:26:56;;;;;;;;;2.50;2.00;;;;;16.55;68.05;100808.81;5111329;27;45919;-90
2022/06/26 03:29:22;;;;;;;;;4.25;4.00;;;;;16.28;68.00;100747.47;5127568;27;45204;-90
2022/06/26 03:31:47;;;;;;;;;4.00;3.00;;;;;16.65;68.43;100821.28;5110794;27;45058;-83
2022/06/26 03:34:12;;;;;;;;;3.50;3.50;;;;;16.42;68.34;100781.22;5110824;27;45027;-90
2022/06/26 03:36:38;;;;;;;;;3.00;3.00;;;;;16.46;67.89;100791.00;5110978;27;45445;-80
2022/06/26 03:39:04;;;;;;;;;3.00;3.00;;;;;16.65;68.29;100833.63;5111288;27;45130;-86
2022/06/26 03:41:29;;;;;;;;;3.00;2.00;;;;;16.54;68.69;100817.59;5109774;27;45272;-91
2022/06/26 03:43:55;;;;;;;;;4.00;3.00;;;;;16.36;68.97;100791.78;5111792;27;45030;-86
2022/06/26 03:46:20;;;;;;;;;2.75;2.75;;;;;16.19;68.04;100770.34;5110490;27;46245;-88
2022/06/26 03:48:46;;;;;;;;;2.00;2.00;;;;;16.60;68.57;100843.31;5111123;27;44963;-91
2022/06/26 03:51:11;;;;;;;;;4.00;4.00;;;;;16.31;68.96;100798.78;5110506;27;45333;-89
2022/06/26 03:53:37;;;;;;;;;3.00;3.00;;;;;16.27;68.88;100796.97;5110031;27;45412;-82
2022/06/26 03:56:04;;;;;;;;;3.00;3.00;;;;;16.49;68.57;100833.47;5109248;27;45164;-83
2022/06/26 03:58:29;;;;;;;;;3.00;3.00;;;;;16.33;68.41;100802.34;5107500;27;45277;-85
2022/06/26 04:00:55;;;;;;;;;3.25;3.00;;;;;16.36;68.47;100813.00;5109101;27;45148;-87
2022/06/26 04:03:21;;;;;;;;;3.00;3.00;;;;;16.64;68.87;100876.97;5109683;27;45383;-90
2022/06/26 04:05:47;;;;;;;;;3.25;3.25;;;;;16.41;68.97;100836.94;5113041;27;45384;-82
2022/06/26 04:08:13;;;;;;;;;2.75;2.75;;;;;16.33;69.06;100826.22;5127846;27;45649;-91
2022/06/26 04:10:39;;;;;;;;;3.00;2.75;;;;;16.50;69.08;100847.63;5102879;27;45152;-85
2022/06/26 04:13:07;;;;;;;;;4.00;3.50;;;;;16.40;68.94;100841.34;5104662;27;45407;-86
2022/06/26 04:15:35;;;;;;;;;5.00;3.50;;;;;16.55;68.60;100867.19;5113371;27;45230;-88
2022/06/26 04:18:00;;;;;;;;;4.75;4.25;;;;;16.65;68.60;100882.34;5108470;27;45283;-82
2022/06/26 04:20:26;;;;;;;;;3.00;3.00;;;;;16.49;68.83;100861.75;5108128;27;45041;-89
2022/06/26 04:23:00;;;;;;;;;4.00;4.00;;;;;16.50;68.77;100863.53;5104897;27;45279;-92
2022/06/26 04:25:27;;;;;;;;;3.50;3.50;;;;;16.74;68.79;100895.72;5112735;27;45783;-92
2022/06/26 04:27:52;;;;;;;;;3.25;3.00;;;;;16.57;68.65;100864.53;5112660;27;45264;-82
2022/06/26 04:30:18;;;;;;;;;4.25;3.00;;;;;16.50;68.43;100852.94;5112427;27;45412;-83
2022/06/26 04:32:43;;;;;;;;;2.75;2.75;;;;;16.54;68.29;100844.13;5106244;27;44938;-82
2022/06/26 04:35:09;;;;;;;;;3.50;3.00;;;;;16.57;68.51;100856.56;5104765;27;45602;-81
2022/06/26 04:37:35;;;;;;;;;4.50;3.00;;;;;16.65;68.49;100871.72;5111635;27;45487;-82
2022/06/26 04:40:01;;;;;;;;;3.50;3.25;;;;;16.42;68.67;100825.44;5111854;27;45289;-83
2022/06/26 04:42:26;;;;;;;;;2.00;2.00;;;;;16.43;68.49;100841.38;5111263;27;45175;-82
2022/06/26 04:44:51;;;;;;;;;2.50;2.00;;;;;16.73;68.18;100885.97;5109628;27;47639;-89
2022/06/26 04:47:17;;;;;;;;;3.67;3.33;;;;;16.58;68.44;100851.28;5109908;27;45096;-86
2022/06/26 04:49:42;;;;;;;;;3.00;2.25;;;;;16.67;68.46;100864.66;5111618;27;45212;-83
2022/06/26 04:52:07;;;;;;;;;2.00;2.00;;;;;16.73;68.04;100871.81;5111851;27;45039;-88
2022/06/26 04:54:33;;;;;;;;;6.00;4.75;;;;;16.93;68.35;100898.59;5112049;27;45778;-91
2022/06/26 04:56:58;;;;;;;;;4.00;3.00;;;;;16.91;68.15;100889.72;5104876;27;44961;-89
2022/06/26 04:59:23;;;;;;;;;4.00;4.00;;;;;16.63;67.55;100838.94;5091773;28;45128;-91
2022/06/26 05:01:49;;;;;;;;;4.25;3.25;;;;;16.59;67.74;100828.28;5084375;28;45165;-83
2022/06/26 05:04:15;;;;;;;;;2.00;2.00;;;;;16.90;67.62;100864.94;5090964;28;45293;-91
2022/06/26 05:06:40;;;;;;;;;4.75;4.00;;;;;16.82;67.66;100857.78;5087426;28;45152;-85
2022/06/26 05:09:05;;;;;;;;;3.25;3.25;;;;;16.77;67.64;100840.03;5091177;28;45245;-90
2022/06/26 05:11:31;;;;;;;;;3.00;3.00;;;;;16.88;67.93;100864.03;5090945;28;45114;-92
2022/06/26 05:13:56;;;;;;;;;3.75;3.75;;;;;16.94;67.34;100877.34;5090513;28;45224;-79
2022/06/26 05:16:21;;;;;;;;;4.00;4.00;;;;;16.88;67.31;100860.47;5088153;28;45119;-82
2022/06/26 05:18:47;;;;;;;;;3.75;3.00;;;;;16.90;67.51;100861.41;5090881;28;45057;-82
2022/06/26 05:21:13;;;;;;;;;3.00;2.25;;;;;16.95;67.01;100879.16;5090530;28;45138;-90
2022/06/26 05:23:39;;;;;;;;;4.50;4.50;;;;;17.00;67.44;100879.22;5091527;28;45301;-82
2022/06/26 05:26:05;;;;;;;;;3.50;3.00;;;;;17.29;67.67;100932.63;5090134;28;45056;-85
2022/06/26 05:28:30;;;;;;;;;4.00;3.00;;;;;17.15;66.95;100915.66;5091334;28;45065;-84
2022/06/26 05:30:56;;;;;;;;;3.50;3.50;;;;;17.06;66.24;100883.69;5090506;28;45173;-82
2022/06/26 05:33:24;;;;;;;;;2.00;2.00;;;;;17.17;66.53;100905.94;5071810;28;47023;-85
2022/06/26 05:35:50;;;;;;;;;3.00;2.75;;;;;17.06;66.56;100891.66;5090990;28;45538;-88
2022/06/26 05:38:15;;;;;;;;;3.00;3.00;;;;;17.05;67.10;100890.78;5090999;28;44955;-83
2022/06/26 05:40:41;;;;;;;;;4.00;4.00;;;;;17.36;67.27;100934.47;5078303;28;45016;-81
2022/06/26 05:43:06;;;;;;;;;3.00;3.00;;;;;17.44;66.59;100946.06;5076699;28;45439;-81
2022/06/26 05:45:32;;;;;;;;;3.00;2.75;;;;;17.06;66.73;100883.69;5087486;28;45060;-89
2022/06/26 05:47:57;;;;;;;;;3.00;2.75;;;;;17.12;66.19;100876.66;5081747;28;45570;-88
2022/06/26 05:50:23;;;;;;;;;3.25;2.00;;;;;17.31;66.07;100892.78;5072426;28;45238;-81
2022/06/26 05:52:49;;;;;;;;;3.00;3.00;;;;;17.44;66.15;100900.91;5070671;28;46272;-81
2022/06/26 05:55:14;;;;;;;;;2.00;2.00;;;;;17.55;65.20;100916.94;5070850;28;45210;-91
2022/06/26 05:57:39;;;;;;;;;2.25;2.25;;;;;17.54;65.00;100915.16;5090670;27;45213;-91
2022/06/26 06:00:07;;;;;;;;;3.00;3.00;;;;;17.62;65.23;100915.22;5091748;28;45140;-82
2022/06/26 06:02:33;;;;;;;;;3.25;2.50;;;;;17.78;65.67;100941.06;5087993;28;46088;-89
2022/06/26 06:04:58;;;;;;;;;3.00;2.00;;;;;17.66;65.37;100907.28;5072094;28;45052;-90
2022/06/26 06:07:24;;;;;;;;;3.00;3.00;;;;;17.86;65.01;100941.16;5078162;27;44971;-84
2022/06/26 06:09:50;;;;;;;;;4.00;3.25;;;;;17.60;65.53;100890.41;5073456;28;45229;-87
2022/06/26 06:12:15;;;;;;;;;2.25;2.25;;;;;17.64;64.86;100906.38;5088989;28;45291;-82
2022/06/26 06:14:41;;;;;;;;;3.75;3.00;;;;;17.72;64.47;100915.28;5094529;28;44995;-89
2022/06/26 06:19:50;;;;;;;;;2.00;2.00;;;;;17.75;64.56;100920.69;5094127;28;45054;-91
2022/06/26 06:22:15;;;;;;;;;3.00;3.00;;;;;17.22;64.90;100836.03;5093855;28;45203;-93
2022/06/26 06:24:41;;;;;;;;;4.50;3.00;;;;;17.25;64.31;100845.81;5077646;28;45059;-94
2022/06/26 06:27:06;;;;;;;;;4.00;4.00;;;;;17.54;64.34;100896.56;5093133;27;45072;-89
2022/06/26 06:29:31;;;;;;;;;2.50;2.50;;;;;17.52;63.55;100899.19;5075902;28;45199;-86
2022/06/26 06:31:57;;;;;;;;;4.75;3.75;;;;;17.63;63.74;100920.53;5087626;28;48422;-90
2022/06/26 06:34:22;;;;;;;;;2.75;2.75;;;;;17.42;63.95;100884.03;5092783;28;45146;-87
2022/06/26 06:36:47;;;;;;;;;3.25;3.00;;;;;17.51;64.35;100902.72;5073546;28;45191;-90
2022/06/26 06:39:13;;;;;;;;;3.00;3.00;;;;;17.58;63.71;100919.59;5091811;28;45261;-89
2022/06/26 06:41:38;;;;;;;;;2.00;2.00;;;;;17.77;64.03;100934.84;5094112;28;46105;-86
2022/06/26 06:44:04;;;;;;;;;3.25;2.00;;;;;17.93;63.39;100959.84;5090300;28;45210;-88
2022/06/26 06:46:29;;;;;;;;;3.00;3.00;;;;;17.79;63.88;100934.91;5092789;28;45154;-86
2022/06/26 06:48:54;;;;;;;;;3.50;2.50;;;;;17.70;63.63;100903.78;5092987;28;45357;-90
2022/06/26 06:51:19;;;;;;;;;3.00;3.00;;;;;18.11;62.72;100972.38;5092930;28;47998;-92
2022/06/26 06:53:45;;;;;;;;;2.25;2.00;;;;;17.87;62.38;100932.28;5090973;28;45162;-93
2022/06/26 06:56:11;;;;;;;;;2.00;1.50;;;;;18.15;62.30;100975.94;5094213;28;45038;-88
2022/06/26 06:58:37;;;;;;;;;2.50;2.50;;;;;18.11;61.98;100972.38;5092846;27;45640;-81
2022/06/26 07:01:02;;;;;;;;;2.00;1.50;;;;;18.03;62.09;100955.47;5091957;28;45216;-83
2022/06/26 07:03:28;;;;;;;;;2.50;2.00;;;;;18.01;63.02;100950.13;5092220;28;45119;-83
2022/06/26 07:08:28;;;;;;;;;1.50;1.50;;;;;18.13;62.42;100952.00;5683820;22;45868;-80
2022/06/26 07:10:53;;;;;;;;;2.50;2.00;;;;;18.24;61.88;100971.56;5024058;28;46062;-79
2022/06/26 07:13:19;;;;;;;;;1.75;1.50;;;;;18.34;60.89;100987.63;5020660;28;45102;-79
2022/06/26 07:15:44;;;;;;;;;2.00;0.50;;;;;18.43;60.33;101004.53;5025899;28;45381;-79
2022/06/26 07:18:10;;;;;;;;;1.50;1.50;;;;;18.36;60.01;100983.19;5015330;28;45480;-79
2022/06/26 07:20:35;;;;;;;;;0.50;0.50;;;;;18.45;59.61;101005.41;5028532;28;45429;-79
2022/06/26 07:23:01;;;;;;;;;1.00;1.00;;;;;18.40;60.36;100987.66;5031467;28;45477;-78
2022/06/26 07:25:26;;;;;;;;;1.75;1.75;;;;;18.50;60.19;100990.38;5031052;28;45252;-79
2022/06/26 07:27:52;;;;;;;;;2.00;2.00;;;;;18.68;59.98;101007.34;5030366;28;45278;-79
2022/06/26 07:35:42;;;;;;;;;2.75;2.00;;;;;18.86;58.20;101015.44;5368125;22;45471;-82
2022/06/26 07:38:07;;;;;;;;;0.75;0.75;;;;;18.85;56.88;101008.34;4953221;28;45477;-81
2022/06/26 07:40:33;;;;;;;;;1.75;1.75;;;;;18.93;57.43;101014.59;4974922;28;50764;-79
2022/06/26 07:42:58;;;;;;;;;1.75;0.75;;;;;19.02;56.93;101009.31;4975661;28;45384;-79
2022/06/26 07:45:23;;;;;;;;;0.75;0.00;;;;;19.11;56.83;101010.22;4977973;28;46218;-79
2022/06/26 07:47:49;;;;;;;;;1.00;1.00;;;;;19.15;56.72;101012.91;4973713;28;45548;-79
2022/06/26 07:50:14;;;;;;;;;1.67;0.67;;;;;19.22;56.44;101016.50;4978645;28;55459;-79
2022/06/26 07:52:39;;;;;;;;;1.50;0.75;;;;;19.30;55.86;101022.72;4974154;28;45739;-80
2022/06/26 07:55:05;;;;;;;;;1.75;0.75;;;;;19.24;55.60;101004.06;4939414;28;45358;-80
2022/06/26 07:57:32;;;;;;;;;1.75;1.25;;;;;19.36;55.75;101027.19;4966758;28;45360;-79
2022/06/26 07:59:57;;;;;;;;;2.00;1.00;;;;;19.38;55.72;101020.09;4983103;28;45700;-79
2022/06/26 08:02:22;;;;;;;;;1.00;1.00;;;;;19.45;55.27;101017.44;4992818;28;44914;-79
2022/06/26 08:04:48;;;;;;;;;2.00;1.75;;;;;19.49;54.99;101008.56;4991481;28;45257;-79
2022/06/26 08:07:13;;;;;;;;;1.00;1.00;;;;;19.53;54.17;101007.69;4969292;28;45657;-80
2022/06/26 08:09:38;;;;;;;;;1.00;1.00;;;;;19.61;55.26;100999.75;4975171;28;47356;-79
2022/06/26 08:12:04;;;;;;;;;2.00;2.00;;;;;19.65;55.39;100992.63;4976641;28;45310;-79
2022/06/26 08:14:29;;;;;;;;;2.00;2.00;;;;;19.81;56.26;100998.00;4976816;28;45317;-79
2022/06/26 08:16:55;;;;;;;;;3.00;1.00;;;;;20.03;55.13;101004.22;4976623;28;45541;-79
2022/06/26 08:19:20;;;;;;;;;1.00;1.00;;;;;19.92;54.71;100974.00;4974688;28;58615;-79
2022/06/26 08:22:00;;;;;;;;;2.00;1.00;;;;;20.21;54.90;100999.78;4960792;28;47506;-79
2022/06/26 08:24:26;;;;;;;;;2.00;1.00;;;;;20.33;54.73;101021.13;4957195;28;45386;-79
2022/06/26 08:26:51;;;;;;;;;1.00;1.00;;;;;20.32;54.64;101003.31;4957158;28;45556;-79
2022/06/26 08:29:17;;;;;;;;;2.50;2.50;;;;;20.29;53.39;100981.97;4956863;28;45317;-78
2022/06/26 08:31:42;;;;;;;;;1.25;1.00;;;;;20.28;53.19;100981.06;4957015;28;45455;-79
2022/06/26 08:34:07;;;;;;;;;2.00;2.00;;;;;20.30;52.73;100973.09;4956851;28;45484;-79
2022/06/26 08:36:33;;;;;;;;;2.25;2.25;;;;;20.60;53.12;101021.13;4959041;28;45635;-79
2022/06/26 08:38:58;;;;;;;;;1.00;1.00;;;;;20.52;53.16;100992.66;4956750;28;45610;-79
2022/06/26 08:41:28;;;;;;;;;1.00;1.00;;;;;20.64;53.06;101005.06;4956692;28;48826;-80
2022/06/26 08:43:58;;;;;;;;;2.25;2.00;;;;;20.63;52.82;101003.28;4957009;28;45495;-79
2022/06/26 08:46:28;;;;;;;;;2.00;2.00;;;;;20.70;52.98;101002.41;4956891;28;45410;-79
2022/06/26 08:48:57;;;;;;;;;1.25;1.25;;;;;20.53;52.70;100981.06;4964607;28;45620;-80
2022/06/26 08:51:23;;;;;;;;;1.00;1.00;;;;;20.39;52.98;100975.72;4975809;28;45519;-80
2022/06/26 08:53:48;;;;;;;;;2.00;1.00;;;;;20.48;53.02;101005.09;4985097;28;45517;-79
2022/06/26 08:56:14;;;;;;;;;1.25;1.25;;;;;20.42;52.72;100989.06;4976251;28;45270;-79
2022/06/26 08:58:39;;;;;;;;;1.00;1.00;;;;;20.35;51.26;100972.19;4975978;28;46412;-79
2022/06/26 09:01:07;;;;;;;;;1.25;1.25;;;;;20.46;50.75;100992.63;4975957;28;45397;-79
2022/06/26 09:03:34;;;;;;;;;2.00;2.00;;;;;20.41;50.55;100979.28;4975077;28;45406;-79
2022/06/26 09:06:01;;;;;;;;;2.50;1.50;;;;;20.45;51.82;100974.84;4956060;28;45774;-79
2022/06/26 09:08:28;;;;;;;;;2.75;1.50;;;;;20.42;52.33;100961.47;4956378;28;45649;-79
2022/06/26 09:10:54;;;;;;;;;2.50;2.00;;;;;20.51;51.31;100957.03;4965851;28;45759;-80
2022/06/26 09:13:19;;;;;;;;;1.00;0.75;;;;;20.72;51.12;100981.91;4970867;28;45437;-79
2022/06/26 09:15:45;;;;;;;;;1.00;1.00;;;;;20.64;51.59;100968.59;4973026;28;45540;-79
2022/06/26 09:18:12;;;;;;;;;1.00;1.00;;;;;20.68;51.06;100967.66;4969802;28;45460;-79
2022/06/26 09:20:50;;;;;;;;;1.75;1.75;;;;;20.69;50.68;100971.22;4965703;28;45413;-80
2022/06/26 09:23:16;;;;;;;;;2.00;2.00;;;;;20.61;50.58;100964.13;4979001;28;45542;-79
2022/06/26 09:25:44;;;;;;;;;1.75;1.75;;;;;20.49;50.05;100948.16;4967029;28;45733;-79
2022/06/26 09:28:15;;;;;;;;;1.25;1.25;;;;;20.65;50.30;100974.81;4963983;28;46302;-80
2022/06/26 09:31:01;;;;;;;;;3.00;1.75;;;;;20.71;50.41;100972.13;4973484;28;45552;-79
2022/06/26 09:33:29;;;;;;;;;1.25;1.00;;;;;20.73;49.43;100951.63;4970491;28;45753;-79
2022/06/26 09:35:56;;;;;;;;;2.00;2.00;;;;;21.05;50.29;100981.78;4972520;28;45658;-79
2022/06/26 09:38:28;;;;;;;;;1.00;1.00;;;;;21.21;49.60;100979.03;4976059;28;45531;-78
2022/06/26 09:40:55;;;;;;;;;1.00;1.00;;;;;21.27;49.25;100987.88;4959357;28;45738;-79
2022/06/26 09:43:40;;;;;;;;;1.00;1.00;;;;;20.97;48.41;100927.47;4962750;28;45406;-79
2022/06/26 09:46:11;;;;;;;;;0.50;0.50;;;;;21.31;48.75;100980.78;4956766;28;45223;-80
2022/06/26 09:48:37;;;;;;;;;1.00;1.00;;;;;21.25;48.17;100962.06;4981125;28;46453;-79
2022/06/26 09:51:05;;;;;;;;;1.00;0.50;;;;;21.26;47.62;100964.72;4980327;28;45144;-79
2022/06/26 09:53:31;;;;;;;;;2.25;2.00;;;;;21.24;47.31;100976.34;4980311;28;45316;-79
2022/06/26 09:55:59;;;;;;;;;1.00;1.00;;;;;21.16;46.41;100991.53;4963447;28;45413;-79
2022/06/26 09:58:25;;;;;;;;;2.00;2.00;;;;;20.98;47.47;100976.44;4973398;28;47634;-79
2022/06/26 10:06:26;;;;;;;;;2.00;1.75;;;;;20.95;48.92;100976.47;4984888;28;45396;-79
2022/06/26 10:08:57;;;;;;;;;1.75;0.75;;;;;20.92;48.75;100980.03;4971219;28;46107;-79
2022/06/26 10:11:24;;;;;;;;;0.50;0.50;;;;;20.70;49.21;100948.97;4993101;28;45607;-79
2022/06/26 10:13:54;;;;;;;;;3.00;1.00;;;;;20.82;48.42;100967.63;4991525;28;44970;-79
2022/06/26 10:16:34;;;;;;;;;3.00;3.00;;;;;20.83;48.49;100967.59;4987477;28;45214;-79
2022/06/26 10:19:32;;;;;;;;;2.50;2.00;;;;;20.87;49.70;100976.50;4985140;28;45743;-80
2022/06/26 10:21:57;;;;;;;;;3.00;3.00;;;;;20.93;49.60;100962.22;4930657;28;45311;-79
2022/06/26 10:24:23;;;;;;;;;1.00;1.00;;;;;20.96;48.69;100956.88;4984382;28;45136;-79
2022/06/26 10:26:57;;;;;;;;;3.75;3.00;;;;;21.08;48.93;100960.41;4992118;28;45073;-78
2022/06/26 10:29:34;;;;;;;;;2.00;1.75;;;;;21.13;48.85;100961.25;4988017;28;45245;-79
2022/06/26 10:31:59;;;;;;;;;1.00;0.75;;;;;21.14;49.14;100954.13;4982907;28;45443;-80
2022/06/26 10:34:25;;;;;;;;;2.00;2.00;;;;;21.38;49.97;100979.88;4986332;28;45253;-79
2022/06/26 10:36:57;;;;;;;;;2.50;2.00;;;;;21.55;49.94;100985.09;4985177;28;45066;-79
2022/06/26 10:39:23;;;;;;;;;2.50;2.50;;;;;21.46;48.01;100951.28;4987625;28;45264;-79
2022/06/26 10:44:37;;;;;;;;;1.50;1.50;;;;;21.84;48.77;100977.75;4988325;28;45129;-80
2022/06/26 10:47:13;;;;;;;;;1.00;1.00;;;;;21.95;47.75;100974.97;4982702;28;45602;-78
2022/06/26 10:49:51;;;;;;;;;2.25;2.25;;;;;21.96;47.26;100954.44;4976197;28;47255;-79
2022/06/26 10:52:27;;;;;;;;;2.00;2.00;;;;;22.04;46.96;100961.50;4985522;28;45165;-78
2022/06/26 10:54:55;;;;;;;;;7.75;6.75;;;;;21.98;46.74;100953.56;4982206;28;45039;-78
2022/06/26 10:57:37;;;;;;;;;3.50;3.50;;;;;22.09;46.39;100970.41;4988150;28;45195;-78
2022/06/26 11:00:06;;;;;;;;;2.50;2.00;;;;;22.14;46.82;100954.31;4988142;28;45699;-78
2022/06/26 11:02:37;;;;;;;;;1.00;1.00;;;;;22.47;46.54;100974.53;4989343;28;45467;-78
2022/06/26 11:05:04;;;;;;;;;2.75;2.00;;;;;22.65;45.93;100965.38;4991403;28;45134;-78
2022/06/26 11:07:46;;;;;;;;;1.25;1.25;;;;;22.78;45.21;100964.34;4988450;28;45287;-79
2022/06/26 11:10:17;;;;;;;;;1.00;1.00;;;;;22.85;45.20;100939.22;4987578;28;45718;-78
2022/06/26 11:12:44;;;;;;;;;7.00;5.75;;;;;23.09;46.81;100951.44;4971368;28;45586;-78
2022/06/26 11:15:27;;;;;;;;;17.50;16.25;;;;;23.30;45.38;100944.94;4987180;28;45463;-78
2022/06/26 11:18:04;;;;;;;;;14.50;14.50;;;;;23.47;44.87;100950.03;4994637;28;45234;-78
2022/06/26 11:20:52;;;;;;;;;2.00;2.00;;;;;23.59;44.73;100944.44;4989235;28;45921;-78
2022/06/26 11:23:32;;;;;;;;;11.50;10.50;;;;;23.66;44.87;100939.94;4985268;28;45448;-78
2022/06/26 11:26:00;;;;;;;;;4.00;2.50;;;;;23.64;44.80;100942.66;4989070;28;45132;-78
2022/06/26 11:28:39;;;;;;;;;2.00;1.50;;;;;23.66;43.21;100932.75;4982002;28;45483;-79
2022/06/26 11:31:10;;;;;;;;;1.00;1.00;;;;;23.87;42.93;100949.41;4959344;28;45405;-78
2022/06/26 11:33:37;;;;;;;;;1.00;1.00;;;;;23.91;42.12;100938.59;4974392;28;46152;-78
2022/06/26 11:36:12;;;;;;;;;1.00;1.00;;;;;23.97;42.59;100953.72;4985276;28;45176;-78
2022/06/26 11:38:37;;;;;;;;;2.25;2.25;;;;;23.69;42.76;100942.53;4969047;28;45522;-78
2022/06/26 11:41:05;;;;;;;;;16.00;15.25;;;;;23.56;43.99;100952.56;4975764;28;45758;-78
2022/06/26 11:43:32;;;;;;;;;2.00;2.00;;;;;23.47;42.98;100946.47;4956986;28;45895;-78
2022/06/26 11:45:59;;;;;;;;;4.00;4.00;;;;;23.36;43.49;100931.41;4961064;28;45661;-78